createdAt,value
2022-12-06T00:01:16.862Z,85.34
2022-12-06T00:06:16.877Z,85.20
2022-12-06T00:11:15.575Z,84.77
2022-12-06T00:16:15.287Z,84.07
2022-12-06T00:21:14.229Z,83.81
2022-12-06T00:26:11.681Z,83.89
2022-12-06T00:31:12.054Z,83.60
2022-12-06T00:36:15.946Z,83.10
2022-12-06T00:41:15.149Z,81.82
2022-12-06T00:46:14.993Z,80.90
2022-12-06T00:51:13.259Z,80.92
2022-12-06T00:56:10.512Z,81.15
2022-12-06T01:01:08.814Z,81.19
2022-12-06T01:06:07.754Z,81.19
2022-12-06T01:11:06.121Z,81.58
2022-12-06T01:16:05.957Z,81.90
2022-12-06T01:21:06.851Z,82.10
2022-12-06T01:26:04.677Z,81.38
2022-12-06T01:31:06.604Z,81.26
2022-12-06T01:36:03.640Z,81.08
2022-12-06T01:41:00.777Z,81.14
2022-12-06T01:46:00.886Z,80.68
2022-12-06T01:50:59.895Z,80.51
2022-12-06T01:55:57.030Z,80.52
2022-12-06T02:00:54.442Z,80.71
2022-12-06T02:05:58.080Z,80.75
2022-12-06T02:10:56.552Z,80.82
2022-12-06T02:16:06.446Z,80.33
2022-12-06T02:21:13.506Z,80.20
2022-12-06T02:26:24.302Z,79.90
2022-12-06T02:31:29.030Z,79.60
2022-12-06T02:36:31.564Z,79.52
2022-12-06T02:41:34.076Z,79.05
2022-12-06T02:46:35.822Z,79.13
2022-12-06T02:51:36.028Z,78.78
2022-12-06T02:56:34.857Z,78.75
2022-12-06T03:01:34.871Z,78.75
2022-12-06T03:06:55.988Z,78.56
2022-12-06T03:11:59.563Z,78.43
2022-12-06T03:17:07.743Z,78.59
2022-12-06T03:22:09.104Z,78.53
2022-12-06T03:27:10.597Z,78.27
2022-12-06T03:32:10.838Z,78.29
2022-12-06T03:37:12.308Z,78.19
2022-12-06T03:42:10.524Z,78.25
2022-12-06T03:47:16.042Z,78.36
2022-12-06T03:52:13.239Z,78.00
2022-12-06T03:57:11.031Z,78.42
2022-12-06T04:02:08.677Z,78.08
2022-12-06T04:07:05.737Z,78.08
2022-12-06T04:12:22.778Z,77.92
2022-12-06T04:17:38.456Z,77.87
2022-12-06T04:22:53.458Z,77.88
2022-12-06T04:28:08.304Z,77.79
2022-12-06T04:33:26.871Z,77.74
2022-12-06T04:38:40.551Z,77.79
2022-12-06T04:43:43.591Z,77.69
2022-12-06T04:48:44.595Z,77.69
2022-12-06T04:53:41.911Z,77.47
2022-12-06T04:58:39.191Z,77.53
2022-12-06T05:03:42.434Z,77.42
2022-12-06T05:08:41.923Z,77.31
2022-12-06T05:13:38.828Z,77.62
2022-12-06T05:18:36.724Z,77.26
2022-12-06T05:23:34.900Z,77.15
2022-12-06T05:28:33.092Z,77.12
2022-12-06T05:33:30.377Z,77.14
2022-12-06T05:38:30.361Z,77.19
2022-12-06T05:43:29.093Z,77.30
2022-12-06T05:48:27.384Z,77.05
2022-12-06T05:53:40.344Z,76.98
2022-12-06T05:58:44.129Z,77.10
2022-12-06T06:03:47.072Z,77.06
2022-12-06T06:08:45.072Z,77.02
2022-12-06T06:13:48.390Z,76.97
2022-12-06T06:18:49.243Z,76.72
2022-12-06T06:23:48.950Z,77.11
2022-12-06T06:28:48.474Z,76.71
2022-12-06T06:33:54.384Z,76.77
2022-12-06T06:39:23.973Z,76.69
2022-12-06T06:44:18.990Z,76.55
2022-12-06T06:49:19.276Z,76.60
2022-12-06T06:54:17.782Z,76.04
2022-12-06T07:05:00.957Z,75.96
2022-12-06T07:10:00.956Z,75.82
2022-12-06T07:15:08.807Z,75.95
2022-12-06T07:20:46.796Z,75.40
2022-12-06T07:25:46.268Z,75.93
2022-12-06T07:31:16.724Z,75.74
2022-12-06T07:36:15.725Z,75.69
2022-12-06T07:41:47.586Z,75.57
2022-12-06T07:47:04.208Z,75.82
2022-12-06T07:52:01.892Z,75.71
2022-12-06T07:57:00.907Z,75.56
2022-12-06T08:02:00.877Z,75.68
2022-12-06T08:07:00.294Z,75.81
2022-12-06T08:11:57.339Z,75.98
2022-12-06T08:17:01.469Z,75.84
2022-12-06T08:21:58.532Z,74.58
2022-12-06T08:26:55.742Z,74.61
2022-12-06T08:31:52.869Z,74.64
2022-12-06T08:36:50.537Z,74.36
2022-12-06T08:41:57.612Z,74.08
2022-12-06T08:46:55.937Z,73.57
2022-12-06T08:51:53.998Z,72.97
2022-12-06T08:56:51.913Z,72.79
2022-12-06T09:01:48.870Z,72.47
2022-12-06T09:06:49.330Z,72.24
2022-12-06T09:11:49.252Z,72.41
2022-12-06T09:16:46.481Z,72.14
2022-12-06T09:21:43.744Z,71.81
2022-12-06T09:26:41.539Z,71.88
2022-12-06T09:31:40.435Z,71.89
2022-12-06T09:36:44.811Z,71.75
2022-12-06T09:42:33.738Z,71.56
2022-12-06T09:47:47.549Z,71.81
2022-12-06T09:53:00.078Z,71.53
2022-12-06T09:58:03.686Z,71.39
2022-12-06T10:03:34.344Z,71.76
2022-12-06T10:08:48.645Z,70.33
2022-12-06T10:14:00.274Z,70.73
2022-12-06T10:19:16.224Z,71.06
2022-12-06T10:24:25.666Z,71.08
2022-12-06T10:29:29.797Z,71.09
2022-12-06T10:34:49.291Z,70.45
2022-12-06T10:40:12.693Z,70.28
2022-12-06T10:51:32.135Z,67.35
2022-12-06T10:56:32.325Z,68.60
2022-12-06T11:01:33.610Z,69.21
2022-12-06T11:06:37.259Z,69.45
2022-12-06T11:11:36.625Z,70.23
2022-12-06T11:16:38.118Z,70.15
2022-12-06T11:21:43.073Z,69.29
2022-12-06T11:26:44.853Z,69.75
2022-12-06T11:31:45.599Z,70.48
2022-12-06T11:36:44.599Z,70.28
2022-12-06T11:41:43.816Z,70.73
2022-12-06T11:46:41.066Z,70.82
2022-12-06T11:51:38.053Z,70.62
2022-12-06T11:56:38.387Z,70.55
2022-12-06T12:01:41.130Z,69.34
2022-12-06T12:06:38.371Z,65.75
2022-12-06T12:11:41.946Z,67.46
2022-12-06T12:16:51.921Z,68.47
2022-12-06T12:21:54.094Z,69.14
2022-12-06T12:26:52.333Z,69.79
2022-12-06T12:31:55.674Z,69.64
2022-12-06T12:36:55.526Z,69.57
2022-12-06T12:41:53.403Z,69.59
2022-12-06T12:46:54.563Z,69.66
2022-12-06T12:51:51.762Z,68.26
2022-12-06T12:56:50.731Z,67.29
2022-12-06T13:01:54.459Z,67.39
2022-12-06T13:06:58.690Z,68.13
2022-12-06T13:12:03.945Z,68.26
2022-12-06T13:17:07.692Z,69.40
2022-12-06T13:22:06.140Z,69.44
2022-12-06T13:27:07.403Z,69.44
2022-12-06T13:32:11.820Z,69.66
2022-12-06T13:37:28.312Z,70.42
2022-12-06T13:42:44.762Z,70.95
2022-12-06T13:47:51.076Z,71.48
2022-12-06T13:53:00.529Z,71.90
2022-12-06T13:58:38.380Z,72.22
2022-12-06T14:03:42.056Z,72.53
2022-12-06T14:08:41.375Z,73.20
2022-12-06T14:13:41.358Z,73.27
2022-12-06T14:18:42.384Z,73.22
2022-12-06T14:23:47.476Z,72.89
2022-12-06T14:29:01.770Z,72.70
2022-12-06T14:33:58.812Z,72.48
2022-12-06T14:39:12.288Z,72.50
2022-12-06T14:44:15.249Z,72.44
2022-12-06T14:49:36.422Z,72.38
2022-12-06T14:54:41.329Z,72.12
2022-12-06T15:00:13.915Z,71.84
2022-12-06T15:05:02.169Z,72.38
2022-12-06T15:10:25.536Z,72.60
2022-12-06T15:16:18.653Z,72.39
2022-12-06T15:21:17.441Z,73.16
2022-12-06T15:26:17.640Z,72.83
2022-12-06T15:31:27.372Z,72.77
2022-12-06T15:36:34.140Z,72.97
2022-12-06T15:41:31.499Z,72.88
2022-12-06T15:47:12.691Z,72.77
2022-12-06T15:52:18.951Z,72.48
2022-12-06T15:57:21.829Z,72.54
2022-12-06T16:02:24.013Z,72.59
2022-12-06T16:07:21.433Z,72.59
2022-12-06T16:12:22.043Z,72.64
2022-12-06T16:17:20.131Z,72.47
2022-12-06T16:22:17.210Z,72.90
2022-12-06T16:27:16.419Z,72.72
2022-12-06T16:32:13.482Z,72.92
2022-12-06T16:37:20.921Z,73.10
2022-12-06T16:42:18.082Z,72.69
2022-12-06T16:52:17.120Z,72.96
2022-12-06T16:57:14.904Z,72.97
2022-12-06T17:02:29.056Z,72.75
2022-12-06T17:07:30.118Z,72.75
2022-12-06T17:12:30.211Z,72.75
2022-12-06T17:17:31.322Z,72.95
2022-12-06T17:22:30.515Z,73.27
2022-12-06T17:27:27.732Z,72.67
2022-12-06T17:32:24.962Z,73.38
2022-12-06T17:37:26.939Z,73.19
2022-12-06T17:42:42.404Z,73.54
2022-12-06T17:47:39.274Z,73.13
2022-12-06T17:52:36.328Z,71.64
2022-12-06T17:57:37.138Z,72.56
2022-12-06T18:02:34.775Z,73.72
2022-12-06T18:07:32.736Z,73.42
2022-12-06T18:12:31.985Z,73.98
2022-12-06T18:17:32.933Z,74.03
2022-12-06T18:22:30.140Z,74.85
2022-12-06T18:27:34.667Z,74.94
2022-12-06T18:32:32.419Z,74.72
2022-12-06T18:37:29.412Z,74.20
2022-12-06T18:42:26.373Z,74.46
2022-12-06T18:47:40.726Z,74.53
2022-12-06T18:52:42.730Z,75.15
2022-12-06T19:03:31.204Z,75.05
2022-12-06T19:08:28.350Z,75.02
2022-12-06T19:13:25.450Z,74.96
2022-12-06T19:18:23.405Z,74.79
2022-12-06T19:23:21.864Z,74.63
2022-12-06T19:28:18.717Z,74.96
2022-12-06T19:33:15.620Z,75.03
2022-12-06T19:38:16.166Z,75.22
2022-12-06T19:43:31.301Z,75.44
2022-12-06T19:48:28.551Z,75.42
2022-12-06T19:53:27.023Z,75.53
2022-12-06T19:58:25.639Z,75.79
2022-12-06T20:03:25.386Z,75.98
2022-12-06T20:08:24.037Z,76.01
2022-12-06T20:13:24.211Z,76.17
2022-12-06T20:18:21.412Z,76.40
2022-12-06T20:23:18.462Z,76.62
2022-12-06T20:28:15.429Z,76.22
2022-12-06T20:33:48.329Z,76.62
2022-12-06T20:38:53.387Z,77.09
2022-12-06T20:43:52.735Z,77.26
2022-12-06T20:48:51.628Z,77.46
2022-12-06T20:53:49.638Z,77.44
2022-12-06T20:58:49.182Z,77.38
2022-12-06T21:03:46.868Z,77.52
2022-12-06T21:08:45.156Z,77.60
2022-12-06T21:13:42.616Z,77.77
2022-12-06T21:18:39.877Z,77.92
2022-12-06T21:23:38.980Z,77.86
2022-12-06T21:28:39.321Z,77.69
2022-12-06T21:33:36.317Z,77.89
2022-12-06T21:38:34.555Z,77.75
2022-12-06T21:43:31.764Z,78.22
2022-12-06T21:48:29.398Z,78.06
2022-12-06T21:53:26.581Z,78.05
2022-12-06T21:58:23.979Z,78.09
2022-12-06T22:03:23.200Z,78.09
2022-12-06T22:08:21.175Z,78.10
2022-12-06T22:13:18.718Z,78.59
2022-12-06T22:18:15.778Z,78.11
2022-12-06T22:23:13.141Z,78.37
2022-12-06T22:28:11.131Z,78.11
2022-12-06T22:33:09.938Z,78.44
2022-12-06T22:38:07.034Z,78.54
2022-12-06T22:43:06.783Z,78.80
2022-12-06T22:48:06.155Z,79.02
2022-12-06T22:53:03.290Z,79.07
2022-12-06T22:58:00.481Z,79.00
2022-12-06T23:02:58.814Z,79.28
2022-12-06T23:07:56.991Z,79.05
2022-12-06T23:12:56.097Z,79.38
2022-12-06T23:17:53.114Z,79.43
2022-12-06T23:22:50.263Z,79.86
2022-12-06T23:27:47.984Z,80.07
2022-12-06T23:32:45.029Z,79.73
2022-12-06T23:37:42.209Z,79.70
2022-12-06T23:42:39.271Z,79.79
2022-12-06T23:47:37.573Z,79.88
2022-12-06T23:52:35.146Z,79.49
2022-12-06T23:57:32.187Z,79.56
